Time;durP1;ratioP1;P1;durP2;ratioP2;P2;SDS_P1;SDS_P2;PMS_P1;PMS_P2;Temp;Humidity;BMP_temperature;BMP_pressure;BME280_temperature;BME280_humidity;BME280_pressure;Samples;Min_cycle;Max_cycle;Signal;HPM_P1;HPM_P2
2022/09/18 00:04:46;;;;;;;4.73;1.50;;;;;;;9.05;89.69;99346.14;3649330;79;98246;-84
2022/09/18 00:09:52;;;;;;;4.20;1.20;;;;;;;8.96;89.26;99340.25;3657827;79;33273;-84
2022/09/18 00:15:18;;;;;;;4.50;1.53;;;;;;;8.92;89.70;99333.98;3649207;79;97825;-84
2022/09/18 00:20:29;;;;;;;5.08;1.40;;;;;;;8.85;89.34;99332.03;3653516;79;25929;-83
2022/09/18 00:25:31;;;;;;;6.83;1.67;;;;;;;8.80;89.79;99335.74;3648703;79;97798;-84
2022/09/18 00:30:32;;;;;;;3.87;1.10;;;;;;;8.91;90.80;99331.84;3656995;79;26115;-85
2022/09/18 00:35:39;;;;;;;5.63;1.50;;;;;;;9.03;91.07;99330.64;3646072;79;97905;-84
2022/09/18 00:40:40;;;;;;;3.62;1.35;;;;;;;8.98;90.85;99325.55;3646657;80;25877;-83
2022/09/18 00:45:41;;;;;;;5.43;1.47;;;;;;;8.96;90.87;99330.08;3631592;80;98113;-84
2022/09/18 00:50:42;;;;;;;5.53;1.30;;;;;;;8.92;89.88;99323.80;3637733;80;33233;-83
2022/09/18 00:55:43;;;;;;;4.90;1.13;;;;;;;8.77;90.60;99329.08;3634163;80;98212;-84
2022/09/18 01:00:44;;;;;;;8.13;1.10;;;;;;;8.84;91.17;99328.30;3636417;80;33221;-84
2022/09/18 01:06:02;;;;;;;8.93;1.30;;;;;;;8.90;90.64;99328.11;3629693;80;97942;-84
2022/09/18 01:11:39;;;;;;;4.53;1.37;;;;;;;8.71;89.90;99327.10;3636336;80;25785;-84
2022/09/18 01:17:15;;;;;;;6.53;1.53;;;;;;;8.60;90.08;99317.51;3635735;80;26617;-83
2022/09/18 01:23:13;;;;;;;8.03;1.40;;;;;;;8.55;91.64;99316.52;3613401;80;98573;-84
2022/09/18 01:28:38;;;;;;;5.17;1.50;;;;;;;8.72;91.83;99310.27;3605254;80;25957;-84
2022/09/18 01:33:59;;;;;;;5.43;1.67;;;;;;;8.69;91.78;99313.80;3599280;80;98498;-84
2022/09/18 01:39:09;;;;;;;4.20;1.30;;;;;;;8.64;91.16;99317.51;3619884;80;26603;-84
2022/09/18 01:44:14;;;;;;;7.35;1.40;;;;;;;8.76;92.31;99317.12;3613830;80;98168;-84
2022/09/18 01:49:22;;;;;;;5.10;1.33;;;;;;;8.78;91.96;99319.66;3623393;80;25984;-84
2022/09/18 01:54:28;;;;;;;4.57;1.77;;;;;;;8.85;91.85;99323.01;3619008;80;98387;-84
2022/09/18 01:59:51;;;;;;;4.47;1.43;;;;;;;8.82;90.93;99312.23;3625315;80;26641;-84
2022/09/18 02:04:57;;;;;;;5.73;1.50;;;;;;;8.81;91.70;99322.22;3613899;80;98119;-84
2022/09/18 02:09:58;;;;;;;8.13;1.70;;;;;;;8.84;91.66;99315.36;3625148;80;26048;-84
2022/09/18 02:15:04;;;;;;;5.30;1.40;;;;;;;8.85;91.75;99313.41;3612083;80;97853;-84
2022/09/18 02:20:19;;;;;;;;;;;;;;;8.82;91.27;99317.72;3610376;80;25800;-84
2022/09/18 02:25:28;;;;;;;5.42;1.40;;;;;;;8.64;91.55;99305.96;3611475;80;84223;-84
2022/09/18 02:30:29;;;;;;;4.63;1.60;;;;;;;8.63;91.45;99308.52;3621673;80;26468;-85
2022/09/18 02:35:36;;;;;;;4.62;1.57;;;;;;;8.67;91.80;99308.52;3616031;80;97881;-84
2022/09/18 02:40:52;;;;;;;;;;;;;;;8.59;90.90;99308.29;3610567;80;25805;-84
2022/09/18 02:46:07;;;;;;;3.63;1.67;;;;;;;8.38;91.67;99304.14;3590981;80;84117;-84
2022/09/18 02:51:19;;;;;;;5.53;1.40;;;;;;;8.38;92.28;99304.14;3587997;80;98360;-84
2022/09/18 02:56:34;;;;;;;4.90;1.53;;;;;;;8.48;92.44;99303.38;3601596;80;33257;-84
2022/09/18 03:01:39;;;;;;;3.05;1.30;;;;;;;8.43;92.25;99303.77;3590478;80;98006;-84
2022/09/18 03:06:40;;;;;;;6.47;1.63;;;;;;;8.45;92.44;99300.83;3584551;80;26016;-83
2022/09/18 03:11:41;;;;;;;5.93;2.37;;;;;;;8.38;92.22;99298.66;3596201;80;98059;-84
2022/09/18 03:16:54;;;;;;;4.33;1.40;;;;;;;8.28;92.47;99300.83;3606570;80;33360;-84
2022/09/18 03:21:54;;;;;;;8.80;1.90;;;;;;;8.27;92.95;99304.14;3599344;80;98308;-84
2022/09/18 03:26:56;;;;;;;5.60;1.40;;;;;;;8.24;92.92;99313.13;3606093;80;33653;-84
2022/09/18 03:31:57;;;;;;;3.60;1.37;;;;;;;8.24;93.31;99310.98;3600214;80;98120;-84
2022/09/18 03:36:58;;;;;;;7.17;1.77;;;;;;;8.15;93.62;99309.95;3609486;80;33235;-84
2022/09/18 03:41:59;;;;;;;6.17;1.52;;;;;;;8.15;94.13;99318.75;3596424;80;98287;-84
2022/09/18 03:47:00;;;;;;;4.40;1.40;;;;;;;8.25;94.19;99318.83;3607613;80;33273;-83
2022/09/18 03:52:01;;;;;;;3.87;1.50;;;;;;;8.30;93.83;99312.94;3593980;80;98104;-84
2022/09/18 03:57:03;;;;;;;3.83;1.27;;;;;;;8.24;94.21;99309.02;3615947;80;33255;-84
2022/09/18 04:02:04;;;;;;;3.90;1.47;;;;;;;8.23;93.86;99319.78;3602062;80;97852;-84
2022/09/18 04:07:06;;;;;;;3.43;1.67;;;;;;;8.25;94.37;99314.72;3600531;80;33206;-83
2022/09/18 04:12:07;;;;;;;5.27;2.00;;;;;;;8.25;94.00;99316.09;3595219;80;98453;-84
2022/09/18 04:17:08;;;;;;;7.40;1.70;;;;;;;8.17;94.67;99316.40;3605620;80;33272;-84
2022/09/18 04:22:09;;;;;;;7.30;1.80;;;;;;;8.17;95.23;99321.30;3598163;80;98002;-84
2022/09/18 04:27:10;;;;;;;4.30;1.83;;;;;;;8.16;95.77;99320.31;3601510;80;33688;-83
2022/09/18 04:32:11;;;;;;;6.77;2.23;;;;;;;8.18;95.95;99326.98;3603701;80;98471;-84
2022/09/18 04:37:12;;;;;;;6.80;2.57;;;;;;;8.19;96.61;99326.41;3605192;80;33198;-83
2022/09/18 04:42:13;;;;;;;7.40;3.02;;;;;;;8.24;96.61;99328.80;3597174;80;97905;-84
2022/09/18 04:47:14;;;;;;;9.50;2.87;;;;;;;8.28;97.23;99319.41;3608013;80;32971;-83
2022/09/18 04:52:14;;;;;;;8.80;3.40;;;;;;;8.31;97.62;99320.59;3598572;80;98389;-83
2022/09/18 04:57:15;;;;;;;11.83;4.87;;;;;;;8.36;98.07;99320.20;3604331;80;32048;-84
2022/09/18 05:02:18;;;;;;;10.57;4.70;;;;;;;8.40;98.50;99323.15;3609473;80;98077;-84
2022/09/18 05:07:19;;;;;;;8.77;4.30;;;;;;;8.43;98.80;99323.75;3623429;80;32254;-84
2022/09/18 05:12:20;;;;;;;16.63;5.60;;;;;;;8.52;98.85;99320.63;3614856;80;97923;-83
2022/09/18 05:17:21;;;;;;;10.67;5.57;;;;;;;8.62;99.28;99318.50;3605228;80;32180;-84
2022/09/18 05:22:22;;;;;;;13.00;5.70;;;;;;;8.68;99.22;99313.58;3614052;80;98819;-83
2022/09/18 05:27:23;;;;;;;11.97;5.95;;;;;;;8.78;99.87;99321.04;3609146;80;32514;-83
2022/09/18 05:32:24;;;;;;;13.17;6.30;;;;;;;8.85;99.95;99332.61;3613481;80;98525;-83
2022/09/18 05:37:25;;;;;;;14.73;5.93;;;;;;;8.92;99.87;99317.52;3626687;80;32863;-83
2022/09/18 05:42:26;;;;;;;13.28;7.83;;;;;;;9.00;100.00;99315.74;3617463;80;98221;-84
2022/09/18 05:47:27;;;;;;;13.83;7.03;;;;;;;9.08;100.00;99324.76;3623823;80;31672;-84
2022/09/18 05:52:28;;;;;;;14.23;5.37;;;;;;;9.14;100.00;99325.35;3610485;80;98399;-84
2022/09/18 05:57:28;;;;;;;15.20;7.63;;;;;;;9.23;100.00;99325.74;3622534;79;25898;-84
2022/09/18 06:02:29;;;;;;;14.87;6.87;;;;;;;9.30;100.00;99327.09;3626525;79;98403;-82
2022/09/18 06:07:30;;;;;;;15.93;7.07;;;;;;;9.38;100.00;99335.50;3617339;79;26513;-84
2022/09/18 06:12:31;;;;;;;14.63;7.00;;;;;;;9.40;100.00;99335.91;3616654;80;98913;-84
2022/09/18 06:17:32;;;;;;;11.83;6.13;;;;;;;9.47;100.00;99332.34;3623067;80;34837;-85
2022/09/18 06:22:35;;;;;;;14.30;6.60;;;;;;;9.55;100.00;99333.30;3615730;80;98935;-85
2022/09/18 06:27:36;;;;;;;15.37;7.33;;;;;;;9.64;100.00;99324.65;3617201;80;28283;-83
2022/09/18 06:32:37;;;;;;;16.27;6.50;;;;;;;9.75;100.00;99334.44;3627889;79;98875;-84
2022/09/18 06:37:38;;;;;;;12.40;6.20;;;;;;;9.86;100.00;99331.67;3620679;80;35411;-84
2022/09/18 06:42:38;;;;;;;11.07;6.43;;;;;;;9.98;100.00;99327.86;3587129;80;98899;-83
2022/09/18 06:47:39;;;;;;;12.00;6.53;;;;;;;10.12;100.00;99333.92;3619920;80;34815;-84
2022/09/18 06:52:40;;;;;;;12.67;6.13;;;;;;;10.25;100.00;99326.20;3609858;80;99110;-83
2022/09/18 06:57:46;;;;;;;11.15;6.22;;;;;;;10.40;100.00;99329.64;3620094;80;34818;-83
2022/09/18 07:03:00;;;;;;;10.90;5.60;;;;;;;10.55;100.00;99326.42;3611616;80;98976;-84
2022/09/18 07:08:01;;;;;;;9.03;4.62;;;;;;;10.69;100.00;99329.06;3624346;80;35406;-83
2022/09/18 07:13:03;;;;;;;10.38;4.50;;;;;;;10.85;100.00;99329.95;3640925;79;99040;-84
2022/09/18 07:18:05;;;;;;;9.45;5.00;;;;;;;10.98;100.00;99337.90;3627076;80;34796;-83
2022/09/18 07:23:07;;;;;;;10.13;5.03;;;;;;;11.26;99.26;99340.41;3610072;80;98586;-85
2022/09/18 07:28:10;;;;;;;9.98;4.10;;;;;;;11.26;99.26;99340.41;3621357;80;34816;-82
2022/09/18 07:33:11;;;;;;;5.35;2.95;;;;;;;11.38;99.03;99333.80;3619280;80;98631;-83
2022/09/18 07:38:12;;;;;;;4.67;2.70;;;;;;;11.51;98.75;99352.75;3616486;80;29174;-83
2022/09/18 07:43:14;;;;;;;6.77;2.80;;;;;;;11.62;98.09;99352.69;3614156;80;98744;-84
2022/09/18 07:48:15;;;;;;;6.60;2.67;;;;;;;11.68;97.71;99353.80;3616835;80;26622;-83
2022/09/18 07:53:17;;;;;;;4.53;1.90;;;;;;;11.75;97.25;99357.85;3604956;80;98515;-85
2022/09/18 07:58:18;;;;;;;4.30;2.30;;;;;;;11.77;96.94;99358.25;3592658;80;26194;-83
2022/09/18 08:03:19;;;;;;;2.37;1.87;;;;;;;11.81;96.64;99368.61;3612644;80;98676;-84
2022/09/18 08:08:20;;;;;;;3.73;1.70;;;;;;;11.85;96.31;99368.78;3617089;80;25808;-84
2022/09/18 08:13:21;;;;;;;3.53;1.50;;;;;;;11.87;95.75;99372.48;3610969;80;98450;-84
2022/09/18 08:18:23;;;;;;;2.33;1.13;;;;;;;11.92;95.90;99365.94;3618049;80;26689;-85
2022/09/18 08:23:24;;;;;;;2.63;1.30;;;;;;;12.06;95.98;99367.75;3609065;80;98962;-86
2022/09/18 08:28:31;;;;;;;2.10;1.03;;;;;;;12.27;96.02;99361.36;3619089;80;28671;-88
2022/09/18 08:33:32;;;;;;;2.05;0.80;;;;;;;12.49;95.54;99360.50;3618846;79;98959;-87
2022/09/18 08:38:34;;;;;;;1.80;1.10;;;;;;;12.69;94.65;99360.00;3640242;79;29096;-90
2022/09/18 08:44:03;;;;;;;1.90;0.60;;;;;;;12.90;93.90;99364.62;3613897;80;98799;-85
2022/09/18 08:49:15;;;;;;;2.22;0.90;;;;;;;13.06;93.15;99368.94;3618473;80;35102;-87
2022/09/18 08:54:43;;;;;;;2.52;0.62;;;;;;;13.19;92.12;99372.66;3614843;79;98896;-87
2022/09/18 08:59:50;;;;;;;2.37;0.50;;;;;;;13.32;91.11;99373.64;3601659;80;34846;-90
2022/09/18 09:04:56;;;;;;;2.72;0.60;;;;;;;13.37;90.56;99377.90;3619816;79;98112;-84
2022/09/18 09:10:42;;;;;;;4.37;1.10;;;;;;;13.44;89.69;99371.66;3618445;80;34868;-88
2022/09/18 09:16:07;;;;;;;4.30;1.57;;;;;;;13.55;89.35;99368.69;3611938;80;98532;-86
2022/09/18 09:21:23;;;;;;;1.10;0.53;;;;;;;13.67;88.99;99374.98;3593536;80;98835;-86
2022/09/18 09:26:25;;;;;;;2.40;0.93;;;;;;;13.90;88.80;99375.73;3601596;80;26133;-89
2022/09/18 09:31:35;;;;;;;2.42;0.72;;;;;;;14.12;87.47;99373.34;3600896;79;98967;-91
2022/09/18 09:36:37;;;;;;;2.90;0.80;;;;;;;14.21;86.96;99384.05;3613778;80;34865;-88
2022/09/18 09:41:44;;;;;;;3.30;1.00;;;;;;;14.23;86.56;99392.69;3602634;80;98758;-90
2022/09/18 09:47:24;;;;;;;2.37;0.62;;;;;;;14.22;85.41;99404.97;3616725;79;34922;-91
2022/09/18 09:52:29;;;;;;;3.25;1.17;;;;;;;14.23;85.46;99399.61;3615820;80;98890;-87
2022/09/18 09:57:58;;;;;;;4.12;1.47;;;;;;;14.25;85.31;99395.84;3584788;80;34811;-90
2022/09/18 10:03:26;;;;;;;4.37;1.67;;;;;;;14.25;85.18;99401.38;3596846;80;98808;-91
2022/09/18 10:08:41;;;;;;;3.30;1.67;;;;;;;14.27;85.15;99399.53;3608466;80;34845;-88
2022/09/18 10:13:54;;;;;;;4.25;2.10;;;;;;;14.32;84.67;99413.67;3613179;80;98401;-85
2022/09/18 10:18:57;;;;;;;5.45;2.42;;;;;;;14.33;84.28;99425.53;3622108;80;34807;-86
2022/09/18 10:24:50;;;;;;;6.53;2.40;;;;;;;14.02;84.70;99432.43;3593240;80;98805;-91
2022/09/18 10:29:55;;;;;;;6.47;2.47;;;;;;;13.80;85.80;99447.23;3623839;80;34901;-92
2022/09/18 10:34:57;;;;;;;6.17;2.50;;;;;;;13.65;86.91;99449.28;3612210;80;98479;-90
2022/09/18 10:40:01;;;;;;;9.55;3.30;;;;;;;13.49;86.99;99464.36;3623358;80;35331;-90
2022/09/18 10:45:16;;;;;;;11.15;3.42;;;;;;;13.44;87.47;99461.48;3622912;80;98185;-88
2022/09/18 10:50:19;;;;;;;11.63;3.35;;;;;;;13.28;86.28;99469.63;3613576;80;35534;-89
2022/09/18 10:55:26;;;;;;;9.05;3.50;;;;;;;13.21;86.49;99470.33;3610305;80;98607;-91
2022/09/18 11:00:33;;;;;;;10.58;4.60;;;;;;;13.22;86.71;99466.36;3611651;80;34761;-89
2022/09/18 11:05:38;;;;;;;11.38;4.28;;;;;;;13.31;86.91;99474.91;3607589;80;98861;-88
2022/09/18 11:10:39;;;;;;;13.00;3.35;;;;;;;13.36;86.76;99475.21;3618488;80;35032;-89
2022/09/18 11:15:46;;;;;;;12.40;3.37;;;;;;;13.44;86.42;99468.39;3612826;80;98725;-90
2022/09/18 11:20:49;;;;;;;9.35;2.27;;;;;;;13.53;85.24;99484.44;3621610;79;35061;-91
2022/09/18 11:26:13;;;;;;;12.73;2.60;;;;;;;13.48;84.70;99480.77;3615830;80;98876;-87
2022/09/18 11:31:18;;;;;;;10.15;2.05;;;;;;;13.53;84.38;99484.44;3611840;80;99113;-85
2022/09/18 11:36:31;;;;;;;10.13;2.95;;;;;;;13.58;84.56;99488.88;3605080;81;36014;-93
2022/09/18 11:41:38;;;;;;;8.73;1.87;;;;;;;13.73;83.63;99477.77;3608925;80;98968;-93
2022/09/18 11:46:58;;;;;;;16.23;3.52;;;;;;;13.85;83.64;99473.02;3605192;80;34940;-87
2022/09/18 11:52:29;;;;;;;6.72;1.90;;;;;;;14.05;82.82;99479.39;3625788;80;98543;-85
2022/09/18 11:57:41;;;;;;;8.73;1.57;;;;;;;14.41;82.66;99476.17;3627942;80;35506;-87
2022/09/18 12:02:56;;;;;;;6.65;1.70;;;;;;;14.68;81.52;99467.13;3610781;80;98338;-87
2022/09/18 12:08:20;;;;;;;10.80;2.58;;;;;;;14.94;80.74;99458.45;3619114;80;35421;-87
2022/09/18 12:14:01;;;;;;;9.20;2.08;;;;;;;15.24;78.58;99459.53;3616852;80;98551;-88
2022/09/18 12:19:34;;;;;;;8.88;2.72;;;;;;;15.60;78.96;99446.42;3626201;80;34836;-87
2022/09/18 12:24:36;;;;;;;6.87;1.87;;;;;;;15.71;75.27;99444.17;3624512;80;98729;-87
2022/09/18 12:29:54;;;;;;;10.17;2.67;;;;;;;15.84;74.74;99439.45;3612056;80;32947;-87
2022/09/18 12:35:22;;;;;;;8.55;1.98;;;;;;;16.05;73.96;99443.86;3620311;80;98718;-88
2022/09/18 12:41:00;;;;;;;7.92;1.42;;;;;;;16.33;73.71;99445.06;3636488;80;35147;-88
2022/09/18 12:46:40;;;;;;;6.50;1.40;;;;;;;16.60;73.15;99437.98;3641217;79;98286;-87
2022/09/18 12:51:52;;;;;;;10.00;2.30;;;;;;;16.80;73.21;99432.23;3642211;77;98267;-89
2022/09/18 12:57:17;;;;;;;4.97;1.42;;;;;;;16.92;72.65;99438.41;3653438;79;34810;-88
2022/09/18 13:02:41;;;;;;;8.93;1.75;;;;;;;16.93;71.48;99425.47;3635067;79;98700;-86
2022/09/18 13:07:53;;;;;;;8.88;2.27;;;;;;;16.97;72.34;99424.76;3647047;78;34767;-88
2022/09/18 13:13:24;;;;;;;7.67;2.17;;;;;;;17.08;71.96;99432.75;3636031;79;98638;-88
2022/09/18 13:18:43;;;;;;;7.83;1.70;;;;;;;16.93;70.30;99427.45;3664160;78;34883;-88
2022/09/18 13:23:46;;;;;;;3.83;1.50;;;;;;;16.83;69.04;99429.94;3646952;78;98392;-88
2022/09/18 13:28:49;;;;;;;6.87;1.47;;;;;;;16.45;67.05;99428.48;3583690;81;42104;-87
2022/09/18 13:33:59;;;;;;;6.42;1.40;;;;;;;16.22;65.79;99429.31;3616721;80;98519;-88
2022/09/18 13:39:08;;;;;;;10.15;1.60;;;;;;;16.10;67.29;99424.49;3599242;81;34873;-86
2022/09/18 13:44:23;;;;;;;9.08;1.80;;;;;;;16.07;67.07;99433.72;3643310;78;98559;-87
2022/09/18 13:49:38;;;;;;;5.95;1.35;;;;;;;15.94;66.66;99426.71;3587441;81;35379;-86
2022/09/18 13:54:39;;;;;;;4.58;1.60;;;;;;;15.91;66.87;99414.33;3637300;79;98464;-87
2022/09/18 13:59:48;;;;;;;3.52;1.05;;;;;;;15.95;67.72;99423.31;3619054;79;35988;-87
2022/09/18 14:05:04;;;;;;;4.25;0.90;;;;;;;15.91;66.91;99426.19;3643797;79;98160;-89
2022/09/18 14:10:26;;;;;;;5.45;1.20;;;;;;;15.89;66.89;99425.06;3652346;79;25883;-85
2022/09/18 14:15:27;;;;;;;8.33;1.02;;;;;;;15.74;66.08;99429.41;3626280;80;98351;-86
2022/09/18 14:20:28;;;;;;;6.87;1.03;;;;;;;15.52;65.40;99425.02;3627270;80;27148;-87
2022/09/18 14:25:45;;;;;;;6.05;1.42;;;;;;;15.40;63.27;99432.65;3635471;79;98129;-84
2022/09/18 14:31:13;;;;;;;5.87;1.62;;;;;;;15.33;64.89;99427.28;3624803;80;34841;-86
2022/09/18 14:36:14;;;;;;;9.03;1.65;;;;;;;15.35;65.38;99423.46;3652083;79;35410;-88
2022/09/18 14:41:23;;;;;;;6.07;0.90;;;;;;;15.39;65.73;99428.92;3656464;78;98252;-83
2022/09/18 14:46:26;;;;;;;3.42;0.75;;;;;;;15.31;64.70;99427.52;3643822;78;35385;-84
2022/09/18 14:51:30;;;;;;;4.40;1.10;;;;;;;15.13;63.28;99420.20;3621615;80;98346;-87
2022/09/18 14:56:35;;;;;;;3.52;1.05;;;;;;;15.03;61.97;99429.53;3627616;80;35486;-85
2022/09/18 15:01:38;;;;;;;5.47;1.20;;;;;;;14.97;62.62;99422.35;3619027;80;98322;-87
2022/09/18 15:06:48;;;;;;;6.78;1.30;;;;;;;14.90;63.08;99423.91;3618880;80;34816;-91
2022/09/18 15:11:50;;;;;;;5.80;1.67;;;;;;;14.89;64.64;99427.86;3609137;80;98410;-89
2022/09/18 15:17:01;;;;;;;8.83;1.15;;;;;;;14.85;64.86;99430.55;3623785;80;35507;-88
2022/09/18 15:22:02;;;;;;;6.58;1.50;;;;;;;14.77;63.66;99427.77;3606185;80;98497;-86
2022/09/18 15:27:04;;;;;;;5.67;1.07;;;;;;;14.67;63.72;99439.85;3614834;80;32946;-86
2022/09/18 15:32:08;;;;;;;7.65;1.02;;;;;;;14.54;63.74;99430.02;3618925;80;98665;-87
2022/09/18 15:37:20;;;;;;;6.22;1.20;;;;;;;14.47;64.87;99433.53;3624128;80;34858;-88
2022/09/18 15:42:31;;;;;;;5.55;0.95;;;;;;;14.40;65.26;99437.22;3620240;80;98432;-86
2022/09/18 15:47:36;;;;;;;4.58;1.32;;;;;;;14.34;65.29;99433.39;3616350;80;34853;-85
2022/09/18 15:53:16;;;;;;;4.08;0.70;;;;;;;14.19;65.79;99440.43;3616993;80;98277;-84
2022/09/18 15:58:41;;;;;;;4.72;0.75;;;;;;;14.09;66.17;99438.61;3616404;80;34900;-85
2022/09/18 16:03:42;;;;;;;3.42;1.10;;;;;;;13.90;66.37;99444.11;3602155;80;98643;-86
2022/09/18 16:08:49;;;;;;;5.80;1.45;;;;;;;13.76;66.73;99441.00;3617351;80;35374;-85
2022/09/18 16:13:51;;;;;;;3.92;1.02;;;;;;;13.64;67.00;99440.23;3607055;80;98399;-86
2022/09/18 16:19:10;;;;;;;4.78;1.50;;;;;;;13.49;66.59;99448.56;3615756;80;34908;-84
2022/09/18 16:24:30;;;;;;;3.92;0.90;;;;;;;13.36;66.71;99450.95;3615700;80;98507;-87
2022/09/18 16:29:35;;;;;;;1.75;0.90;;;;;;;13.21;67.07;99446.25;3581875;80;34765;-85
2022/09/18 16:34:36;;;;;;;6.25;2.33;;;;;;;13.12;68.26;99449.34;3592453;80;98608;-85
2022/09/18 16:39:37;;;;;;;7.27;2.43;;;;;;;12.97;68.66;99452.91;3612011;80;31053;-85
2022/09/18 16:44:39;;;;;;;8.23;2.90;;;;;;;12.88;69.08;99450.45;3617686;80;98131;-84
2022/09/18 16:49:45;;;;;;;5.83;2.80;;;;;;;12.74;70.10;99456.16;3617941;80;29094;-85
2022/09/18 16:54:46;;;;;;;5.90;2.77;;;;;;;12.57;70.24;99455.20;3611283;80;98423;-85
2022/09/18 16:59:49;;;;;;;7.40;3.63;;;;;;;12.46;71.64;99458.69;3620357;80;31031;-85
2022/09/18 17:04:50;;;;;;;12.15;6.67;;;;;;;12.34;72.28;99463.95;3604302;80;98278;-86
2022/09/18 17:09:51;;;;;;;12.33;7.27;;;;;;;12.22;72.99;99470.01;3616788;80;29988;-85
2022/09/18 17:14:52;;;;;;;10.20;4.67;;;;;;;12.08;73.92;99470.94;3604242;80;98421;-85
2022/09/18 17:19:55;;;;;;;8.33;4.30;;;;;;;11.99;74.45;99465.11;3631893;80;29047;-85
2022/09/18 17:24:56;;;;;;;7.90;3.80;;;;;;;11.89;74.94;99471.51;3604494;80;98661;-85
2022/09/18 17:29:57;;;;;;;5.73;2.90;;;;;;;11.79;75.61;99474.38;3617080;80;29390;-85
2022/09/18 17:34:59;;;;;;;7.23;2.40;;;;;;;11.69;76.03;99486.27;3617089;80;98309;-86
2022/09/18 17:40:00;;;;;;;8.80;2.63;;;;;;;11.59;76.12;99492.07;3632387;80;29334;-84
2022/09/18 17:45:02;;;;;;;6.78;2.40;;;;;;;11.44;76.20;99487.82;3622515;80;98727;-84
2022/09/18 17:50:04;;;;;;;5.45;2.00;;;;;;;11.29;76.70;99489.10;3629109;79;35462;-84
2022/09/18 17:55:07;;;;;;;5.58;1.92;;;;;;;11.20;77.54;99488.79;3614729;80;98123;-85
2022/09/18 18:00:10;;;;;;;7.22;2.40;;;;;;;11.11;77.61;99495.33;3620051;80;33788;-84
2022/09/18 18:05:11;;;;;;;10.48;4.83;;;;;;;10.94;77.87;99495.42;3593899;80;98727;-84
2022/09/18 18:10:12;;;;;;;11.83;3.67;;;;;;;10.82;78.86;99498.05;3629189;80;29062;-84
2022/09/18 18:15:14;;;;;;;12.97;3.13;;;;;;;10.74;79.21;99497.11;3608200;79;98301;-86
2022/09/18 18:20:16;;;;;;;7.03;2.73;;;;;;;10.67;79.39;99503.42;3611786;80;28151;-85
2022/09/18 18:25:17;;;;;;;7.37;2.83;;;;;;;10.58;80.18;99501.67;3616959;79;98151;-86
2022/09/18 18:30:19;;;;;;;10.23;4.20;;;;;;;10.53;80.59;99495.82;3612551;80;28189;-86
2022/09/18 18:35:20;;;;;;;9.70;4.60;;;;;;;10.48;80.79;99492.87;3590310;80;98303;-86
2022/09/18 18:40:22;;;;;;;9.70;5.17;;;;;;;10.41;81.44;99496.26;3583836;80;25816;-85
2022/09/18 18:45:23;;;;;;;13.80;6.93;;;;;;;10.40;81.91;99500.17;3584226;80;98463;-84
2022/09/18 18:50:25;;;;;;;13.63;5.93;;;;;;;10.37;82.13;99505.10;3604716;80;25815;-87
2022/09/18 18:55:28;;;;;;;12.70;5.60;;;;;;;10.33;82.43;99498.25;3606812;80;98353;-88
2022/09/18 19:00:33;;;;;;;11.73;6.60;;;;;;;10.27;82.16;99497.66;3619486;80;34172;-87
2022/09/18 19:05:34;;;;;;;12.37;5.70;;;;;;;10.18;82.68;99492.58;3612796;80;98195;-90
2022/09/18 19:10:37;;;;;;;11.65;5.42;;;;;;;10.15;83.04;99500.23;3628220;80;34842;-88
2022/09/18 19:15:38;;;;;;;13.13;5.90;;;;;;;10.00;82.60;99492.39;3604017;79;98510;-88
2022/09/18 19:20:52;;;;;;;11.03;4.10;;;;;;;9.96;83.80;99495.72;3627871;80;34855;-88
2022/09/18 19:25:45;;;;;;;12.73;5.57;;;;;;;9.87;83.12;99496.13;3622633;79;97902;-87
2022/09/18 19:30:47;;;;;;;11.30;3.80;;;;;;;9.78;83.83;99498.52;3628705;80;27742;-82
2022/09/18 19:35:49;;;;;;;10.23;4.58;;;;;;;9.56;83.99;99501.65;3598559;80;98446;-86
2022/09/18 19:40:51;;;;;;;11.70;4.40;;;;;;;9.44;84.76;99512.42;3630932;80;35161;-85
2022/09/18 19:45:53;;;;;;;9.80;3.37;;;;;;;9.44;84.94;99500.06;3621688;80;98215;-83
2022/09/18 19:50:54;;;;;;;9.53;3.73;;;;;;;9.46;84.91;99511.45;3624350;80;26051;-83
2022/09/18 19:55:55;;;;;;;12.00;4.00;;;;;;;9.37;84.91;99505.55;3603215;80;97799;-83
2022/09/18 20:00:59;;;;;;;9.13;3.03;;;;;;;9.22;85.27;99499.08;3625472;79;25913;-84
2022/09/18 20:05:59;;;;;;;9.98;3.95;;;;;;;9.11;85.81;99503.16;3614850;79;97658;-85
2022/09/18 20:11:00;;;;;;;8.30;3.30;;;;;;;9.17;86.59;99500.22;3633707;80;25803;-84
2022/09/18 20:16:08;;;;;;;9.97;3.40;;;;;;;9.18;86.21;99498.27;3617899;79;97832;-85
2022/09/18 20:21:13;;;;;;;9.60;3.02;;;;;;;9.05;86.57;99502.58;3616176;80;98032;-84
2022/09/18 20:26:17;;;;;;;12.07;3.92;;;;;;;8.99;86.91;99504.13;3574666;80;34808;-85
2022/09/18 20:31:19;;;;;;;10.37;3.47;;;;;;;9.01;86.92;99497.08;3611588;80;98187;-85
2022/09/18 20:36:20;;;;;;;12.60;3.40;;;;;;;8.95;87.15;99504.09;3618614;79;32392;-84
2022/09/18 20:41:21;;;;;;;8.33;2.80;;;;;;;8.94;87.59;99490.19;3612021;79;98222;-84
2022/09/18 20:46:23;;;;;;;9.93;2.67;;;;;;;8.93;87.78;99498.80;3624893;79;33101;-84
2022/09/18 20:51:28;;;;;;;8.75;3.08;;;;;;;8.93;87.94;99505.08;3611133;80;98035;-84
2022/09/18 20:56:35;;;;;;;8.93;2.75;;;;;;;8.89;88.08;99511.14;3615459;80;34962;-84
2022/09/18 21:01:40;;;;;;;7.35;2.52;;;;;;;8.91;88.19;99512.93;3595222;80;98199;-84
2022/09/18 21:06:40;;;;;;;11.18;3.42;;;;;;;8.88;88.50;99505.45;3615462;80;33583;-84
2022/09/18 21:11:43;;;;;;;7.25;3.08;;;;;;;8.80;88.42;99506.63;3612481;80;98546;-86
2022/09/18 21:16:45;;;;;;;8.83;2.77;;;;;;;8.79;88.71;99509.14;3614775;80;35214;-83
2022/09/18 21:21:48;;;;;;;8.00;2.87;;;;;;;8.73;88.48;99508.55;3585370;80;98771;-84
2022/09/18 21:26:49;;;;;;;9.98;2.77;;;;;;;8.66;88.66;99516.16;3623225;80;34008;-83
2022/09/18 21:32:12;;;;;;;6.33;2.70;;;;;;;8.57;89.26;99514.95;3613296;80;97904;-83
2022/09/18 21:37:13;;;;;;;6.97;2.15;;;;;;;8.53;89.11;99524.53;3544768;81;35610;-84
2022/09/18 21:42:15;;;;;;;7.63;2.53;;;;;;;8.43;89.60;99526.64;3549502;81;97933;-83
2022/09/18 21:47:16;;;;;;;10.33;2.83;;;;;;;8.33;89.89;99519.14;3556754;81;32037;-83
2022/09/18 21:52:17;;;;;;;9.83;2.93;;;;;;;8.22;90.14;99522.41;3551360;81;98205;-83
2022/09/18 21:57:18;;;;;;;6.33;2.40;;;;;;;8.17;90.68;99522.73;3553723;81;32541;-85
2022/09/18 22:02:20;;;;;;;9.57;2.13;;;;;;;8.14;90.97;99518.61;3551178;81;98098;-84
2022/09/18 22:07:23;;;;;;;8.87;2.73;;;;;;;8.05;91.63;99512.09;3549872;81;25765;-85
2022/09/18 22:12:24;;;;;;;6.17;1.97;;;;;;;8.00;92.21;99510.28;3533151;82;98511;-83
2022/09/18 22:17:25;;;;;;;8.37;1.90;;;;;;;8.00;92.62;99506.97;3537449;82;26678;-82
2022/09/18 22:22:26;;;;;;;7.83;2.23;;;;;;;8.02;92.65;99512.84;3526258;82;98408;-84
2022/09/18 22:27:27;;;;;;;4.97;1.55;;;;;;;8.08;92.43;99515.42;3536048;81;27301;-83
2022/09/18 22:32:28;;;;;;;6.87;1.87;;;;;;;8.06;92.53;99515.03;3530984;81;98329;-83
2022/09/18 22:37:29;;;;;;;6.20;1.90;;;;;;;8.07;93.34;99515.23;3617237;80;26409;-83
2022/09/18 22:42:30;;;;;;;6.37;1.73;;;;;;;8.09;92.73;99517.59;3614361;80;98176;-84
2022/09/18 22:47:31;;;;;;;5.63;1.73;;;;;;;8.02;92.49;99518.92;3623901;80;32488;-83
2022/09/18 22:52:34;;;;;;;6.77;1.70;;;;;;;7.97;93.07;99514.57;3615067;80;98303;-83
2022/09/18 22:57:34;;;;;;;5.57;1.57;;;;;;;7.97;93.00;99514.57;3611637;80;25788;-83
2022/09/18 23:02:35;;;;;;;6.57;1.60;;;;;;;7.87;93.07;99519.98;3618762;80;97880;-83
2022/09/18 23:07:37;;;;;;;5.93;2.23;;;;;;;7.87;93.35;99524.09;3622347;80;32428;-83
2022/09/18 23:12:38;;;;;;;8.93;2.67;;;;;;;7.86;93.55;99530.75;3610224;80;98040;-83
2022/09/18 23:17:42;;;;;;;5.83;1.77;;;;;;;7.85;93.41;99525.84;3626457;80;32458;-83
2022/09/18 23:22:43;;;;;;;9.43;1.80;;;;;;;7.79;93.52;99523.25;3608822;80;98095;-85
2022/09/18 23:27:44;;;;;;;6.30;1.90;;;;;;;7.74;93.86;99526.95;3588117;80;27224;-84
2022/09/18 23:32:47;;;;;;;4.77;1.57;;;;;;;7.69;93.67;99525.32;3612523;80;98051;-84
2022/09/18 23:37:48;;;;;;;5.45;1.95;;;;;;;7.65;94.59;99520.42;3618384;80;32945;-83
2022/09/18 23:42:49;;;;;;;3.00;1.37;;;;;;;7.69;94.10;99521.22;3615488;80;98024;-84
2022/09/18 23:47:50;;;;;;;4.67;1.43;;;;;;;7.72;94.45;99521.84;3622794;80;26026;-84
2022/09/18 23:52:51;;;;;;;4.23;1.40;;;;;;;7.81;94.29;99521.52;3611643;80;98182;-84
2022/09/18 23:57:52;;;;;;;5.70;1.80;;;;;;;7.87;93.95;99523.53;3623996;80;32453;-84
